Time;durP1;ratioP1;P1;durP2;ratioP2;P2;SDS_P1;SDS_P2;PMS_P1;PMS_P2;Temp;Humidity;BMP_temperature;BMP_pressure;BME280_temperature;BME280_humidity;BME280_pressure;Samples;Min_cycle;Max_cycle;Signal;HPM_P1;HPM_P2
2024/01/07 00:00:41;;;;;;;0.60;0.60;;;;;;;7.72;100.00;95759.41;4987297;28;20065;-70
2024/01/07 00:03:08;;;;;;;0.70;0.70;;;;;;;8.18;100.00;95800.25;4987455;28;20137;-70
2024/01/07 00:05:37;;;;;;;0.70;0.70;;;;;;;7.91;100.00;95728.03;4987245;28;20137;-70
2024/01/07 00:08:04;;;;;;;0.70;0.70;;;;;;;8.05;100.00;95727.31;4987089;28;20050;-70
2024/01/07 00:10:31;;;;;;;0.70;0.70;;;;;;;8.21;100.00;95802.25;4986951;28;20070;-70
2024/01/07 00:12:58;;;;;;;0.60;0.60;;;;;;;8.25;100.00;95778.28;4986758;28;20081;-71
2024/01/07 00:15:26;;;;;;;0.70;0.70;;;;;;;8.01;100.00;95726.50;4987301;28;20146;-71
2024/01/07 00:17:53;;;;;;;0.60;0.60;;;;;;;8.50;100.00;95798.50;4985452;28;20056;-70
2024/01/07 00:20:20;;;;;;;0.65;0.65;;;;;;;7.89;100.00;95704.78;4986877;28;20050;-71
2024/01/07 00:22:47;;;;;;;0.70;0.70;;;;;;;8.18;100.00;95747.88;4985135;28;20051;-71
2024/01/07 00:25:14;;;;;;;0.70;0.70;;;;;;;8.49;100.00;95785.88;4985324;28;20062;-71
2024/01/07 00:27:41;;;;;;;0.70;0.70;;;;;;;8.53;100.00;95792.22;4985778;28;20060;-69
2024/01/07 00:30:08;;;;;;;0.75;0.75;;;;;;;8.29;100.00;95738.50;4987327;28;20046;-71
2024/01/07 00:32:35;;;;;;;0.70;0.70;;;;;;;8.68;100.00;95796.59;4986738;28;20580;-70
2024/01/07 00:35:03;;;;;;;0.70;0.70;;;;;;;8.63;100.00;95747.31;4986658;28;20054;-71
2024/01/07 00:37:29;;;;;;;0.70;0.70;;;;;;;7.43;100.00;95583.28;4985018;28;20065;-70
2024/01/07 00:39:56;;;;;;;0.80;0.80;;;;;;;8.81;100.00;95748.16;4987117;28;20437;-70
2024/01/07 00:42:23;;;;;;;0.70;0.70;;;;;;;8.81;100.00;95753.66;4985389;28;20050;-71
2024/01/07 00:44:50;;;;;;;0.80;0.80;;;;;;;8.71;100.00;95705.53;4987168;28;20050;-71
2024/01/07 00:47:17;;;;;;;0.80;0.80;;;;;;;8.64;100.00;95699.22;4984524;28;20055;-70
2024/01/07 00:49:43;;;;;;;0.70;0.70;;;;;;;8.93;100.00;95687.06;4986464;28;20050;-70
2024/01/07 00:52:10;;;;;;;0.80;0.80;;;;;;;8.60;100.00;95643.22;4986155;28;20153;-70
2024/01/07 00:54:37;;;;;;;0.70;0.70;;;;;;;9.21;100.00;95739.56;4986797;28;20061;-70
2024/01/07 00:57:04;;;;;;;0.75;0.75;;;;;;;9.22;100.00;95730.06;4986088;28;20065;-71
2024/01/07 00:59:31;;;;;;;0.80;0.80;;;;;;;8.81;100.00;95673.59;4986220;28;20052;-70
2024/01/07 01:01:58;;;;;;;0.80;0.80;;;;;;;9.21;100.00;95723.75;4970465;28;20054;-70
2024/01/07 01:04:25;;;;;;;0.80;0.80;;;;;;;9.37;100.00;95706.00;4986263;28;20054;-70
2024/01/07 01:06:51;;;;;;;0.73;0.73;;;;;;;8.63;100.00;95592.75;4984453;28;20605;-70
2024/01/07 01:09:18;;;;;;;0.77;0.77;;;;;;;8.53;100.00;95572.25;4986325;28;20121;-70
2024/01/07 01:11:45;;;;;;;0.80;0.80;;;;;;;8.35;100.00;95687.28;4984777;28;20046;-70
2024/01/07 01:14:12;;;;;;;0.60;0.60;;;;;;;8.81;100.00;95644.03;4986087;28;20062;-71
2024/01/07 01:16:38;;;;;;;0.80;0.80;;;;;;;9.17;100.00;95667.72;4986012;28;20129;-70
2024/01/07 01:19:05;;;;;;;0.70;0.70;;;;;;;9.27;100.00;95659.81;4986406;28;20513;-70
2024/01/07 01:21:32;;;;;;;0.70;0.70;;;;;;;8.53;100.00;95539.13;4985961;28;20082;-70
2024/01/07 01:24:00;;;;;;;0.80;0.80;;;;;;;9.36;100.00;95677.56;4984609;28;20065;-70
2024/01/07 01:26:26;;;;;;;0.77;0.77;;;;;;;9.19;100.00;95598.28;4985795;28;20073;-70
2024/01/07 01:28:53;;;;;;;0.80;0.80;;;;;;;9.55;100.00;95638.47;5000819;28;20477;-70
2024/01/07 01:31:20;;;;;;;0.80;0.80;;;;;;;8.60;100.00;95474.88;4985309;28;20422;-70
2024/01/07 01:33:47;;;;;;;0.80;0.80;;;;;;;9.89;100.00;95625.75;4985754;28;20611;-70
2024/01/07 01:36:14;;;;;;;0.70;0.70;;;;;;;9.73;100.00;95544.44;4985572;28;20054;-70
2024/01/07 01:38:41;;;;;;;0.70;0.70;;;;;;;10.29;100.00;95600.31;5000482;28;20129;-70
2024/01/07 01:41:08;;;;;;;0.80;0.80;;;;;;;8.56;100.00;95311.28;5000263;28;20054;-70
2024/01/07 01:43:35;;;;;;;0.90;0.90;;;;;;;10.07;100.00;95518.59;4985720;28;20122;-70
2024/01/07 01:46:02;;;;;;;0.80;0.80;;;;;;;10.14;100.00;95504.75;4984492;28;20332;-70
2024/01/07 01:48:29;;;;;;;0.80;0.80;;;;;;;10.54;100.00;95556.66;4976968;28;20061;-70
2024/01/07 01:50:57;;;;;;;0.90;0.90;;;;;;;9.75;100.00;95437.00;4984951;28;20047;-71
2024/01/07 01:53:26;;;;;;;0.80;0.80;;;;;;;10.67;100.00;95546.69;4985211;28;20093;-70
2024/01/07 01:55:56;;;;;;;0.85;0.85;;;;;;;10.67;100.00;95549.44;4985366;28;20046;-70
2024/01/07 01:58:24;;;;;;;0.80;0.80;;;;;;;10.46;100.00;95482.38;4983952;28;20085;-70
2024/01/07 02:00:50;;;;;;;0.90;0.90;;;;;;;9.34;100.00;95325.50;4985021;28;20085;-70
2024/01/07 02:03:18;;;;;;;0.80;0.80;;;;;;;9.78;100.00;95403.00;4985431;28;20076;-70
2024/01/07 02:05:45;;;;;;;0.80;0.80;;;;;;;10.67;100.00;95521.75;4984052;28;20136;-70
2024/01/07 02:08:13;;;;;;;0.80;0.80;;;;;;;10.51;100.00;95506.88;4983436;28;20061;-70
2024/01/07 02:10:40;;;;;;;0.90;0.90;;;;;;;10.82;100.00;95530.75;4973645;28;20058;-70
2024/01/07 02:13:09;;;;;;;0.70;0.70;;;;;;;10.02;100.00;95436.03;4981620;28;20058;-70
2024/01/07 02:15:35;;;;;;;0.80;0.80;;;;;;;10.81;100.00;95512.56;4984968;28;20062;-70
2024/01/07 02:18:02;;;;;;;0.80;0.80;;;;;;;10.53;100.00;95472.03;4985214;28;20050;-70
2024/01/07 02:20:29;;;;;;;0.80;0.80;;;;;;;10.52;100.00;95453.06;4985106;28;20058;-70
2024/01/07 02:22:59;;;;;;;0.80;0.80;;;;;;;10.70;100.00;95475.88;4984588;28;20603;-70
2024/01/07 02:25:26;;;;;;;0.88;0.88;;;;;;;10.80;100.00;95474.16;4984715;28;20064;-70
2024/01/07 02:27:53;;;;;;;0.90;0.90;;;;;;;10.62;100.00;95436.34;4984828;28;20062;-70
2024/01/07 02:30:19;;;;;;;0.85;0.85;;;;;;;11.00;100.00;95489.03;4985027;28;20057;-70
2024/01/07 02:32:47;;;;;;;0.85;0.85;;;;;;;11.04;100.00;95507.19;4984616;28;20050;-71
2024/01/07 02:35:13;;;;;;;0.80;0.80;;;;;;;10.47;100.00;95417.53;4985207;28;20046;-70
2024/01/07 02:37:40;;;;;;;0.80;0.80;;;;;;;10.59;100.00;95426.09;4984639;28;20054;-71
2024/01/07 02:40:07;;;;;;;0.90;0.90;;;;;;;10.61;100.00;95407.09;4985133;28;20511;-72
2024/01/07 02:42:34;;;;;;;0.82;0.82;;;;;;;10.87;100.00;95444.44;4982904;28;20521;-74
2024/01/07 02:45:01;;;;;;;0.80;0.80;;;;;;;10.93;100.00;95436.44;4984968;28;20054;-74
2024/01/07 02:47:28;;;;;;;0.90;0.90;;;;;;;10.91;100.00;95447.19;4984275;28;20544;-73
2024/01/07 02:49:55;;;;;;;0.80;0.80;;;;;;;10.92;100.00;95454.28;4983482;28;20050;-74
2024/01/07 02:52:21;;;;;;;0.90;0.90;;;;;;;10.76;100.00;95442.97;4983026;28;20050;-73
2024/01/07 02:54:48;;;;;;;0.80;0.80;;;;;;;10.88;100.00;95456.28;4983264;28;20165;-73
2024/01/07 02:57:15;;;;;;;0.90;0.90;;;;;;;10.62;100.00;95403.13;4984431;28;20057;-71
2024/01/07 02:59:42;;;;;;;0.90;0.90;;;;;;;10.93;100.00;95451.09;4984747;28;20054;-73
2024/01/07 03:02:09;;;;;;;0.90;0.90;;;;;;;9.47;100.00;95196.75;4984693;28;20336;-72
2024/01/07 03:04:35;;;;;;;0.90;0.90;;;;;;;9.08;100.00;95128.00;4984841;28;20060;-73
2024/01/07 03:07:03;;;;;;;0.90;0.90;;;;;;;10.33;100.00;95329.88;4984536;28;20069;-73
2024/01/07 03:09:30;;;;;;;0.80;0.80;;;;;;;11.03;100.00;95453.00;4984742;28;20074;-73
2024/01/07 03:11:56;;;;;;;0.90;0.90;;;;;;;10.79;100.00;95412.47;4982957;28;20050;-73
2024/01/07 03:14:23;;;;;;;0.90;0.90;;;;;;;11.14;100.00;95455.63;4984603;28;20433;-72
2024/01/07 03:16:50;;;;;;;0.82;0.82;;;;;;;11.17;100.00;95444.53;4984000;28;20065;-73
2024/01/07 03:19:17;;;;;;;0.80;0.80;;;;;;;10.99;100.00;95409.88;4983264;28;20065;-71
2024/01/07 03:21:44;;;;;;;0.90;0.90;;;;;;;11.23;100.00;95430.97;4982705;28;20544;-73
2024/01/07 03:24:10;;;;;;;0.80;0.80;;;;;;;10.30;100.00;95275.38;4986316;28;20524;-73
2024/01/07 03:26:37;;;;;;;1.00;1.00;;;;;;;11.14;100.00;95378.84;4987812;28;20054;-73
2024/01/07 03:29:04;;;;;;;0.90;0.90;;;;;;;11.19;100.00;95369.28;4988195;28;20523;-73
2024/01/07 03:31:31;;;;;;;0.90;0.90;;;;;;;11.03;100.00;95360.75;4987548;28;20054;-72
2024/01/07 03:33:58;;;;;;;0.90;0.90;;;;;;;10.93;100.00;95356.13;4987994;28;20485;-72
2024/01/07 03:36:26;;;;;;;0.80;0.80;;;;;;;10.67;100.00;95305.78;4987941;28;20511;-72
2024/01/07 03:38:53;;;;;;;0.85;0.85;;;;;;;10.65;100.00;95302.63;4988099;28;20116;-73
2024/01/07 03:41:20;;;;;;;0.80;0.80;;;;;;;10.93;100.00;95342.28;4987822;28;20449;-72
2024/01/07 03:43:47;;;;;;;0.80;0.80;;;;;;;11.12;100.00;95355.50;4987808;28;20448;-73
2024/01/07 03:46:16;;;;;;;0.90;0.90;;;;;;;10.91;100.00;95325.31;4987299;28;20101;-72
2024/01/07 03:48:43;;;;;;;0.90;0.90;;;;;;;11.00;100.00;95328.34;4986415;28;20497;-74
2024/01/07 03:51:10;;;;;;;0.90;0.90;;;;;;;10.87;100.00;95324.56;4987151;28;20046;-74
2024/01/07 03:53:37;;;;;;;0.80;0.80;;;;;;;11.08;100.00;95327.06;4986124;28;20061;-74
2024/01/07 03:56:04;;;;;;;0.85;0.85;;;;;;;10.64;100.00;95290.00;4987284;28;20046;-74
2024/01/07 03:58:30;;;;;;;0.90;0.90;;;;;;;11.03;100.00;95330.28;4985781;28;20622;-74
2024/01/07 04:00:57;;;;;;;0.80;0.80;;;;;;;10.91;100.00;95319.75;4985793;28;20058;-75
2024/01/07 04:03:24;;;;;;;0.80;0.80;;;;;;;10.46;100.00;95255.41;4987306;28;20603;-74
2024/01/07 04:05:51;;;;;;;0.80;0.80;;;;;;;10.89;100.00;95305.53;4987227;28;20112;-75
2024/01/07 04:08:18;;;;;;;0.90;0.90;;;;;;;10.59;100.00;95293.22;4987384;28;20583;-75
2024/01/07 04:10:44;;;;;;;0.80;0.80;;;;;;;10.92;100.00;95286.13;4987334;28;20154;-76
2024/01/07 04:13:11;;;;;;;0.88;0.88;;;;;;;10.93;100.00;95284.09;4987205;28;20061;-75
2024/01/07 04:15:38;;;;;;;0.80;0.80;;;;;;;10.63;100.00;95248.88;4985850;28;20050;-76
2024/01/07 04:18:05;;;;;;;0.80;0.80;;;;;;;10.97;100.00;95285.63;4986300;28;20062;-75
2024/01/07 04:20:32;;;;;;;0.80;0.80;;;;;;;11.00;100.00;95278.50;4987081;28;20053;-75
2024/01/07 04:22:59;;;;;;;0.90;0.90;;;;;;;11.00;100.00;95278.50;4985238;28;20054;-74
2024/01/07 04:25:25;;;;;;;0.80;0.80;;;;;;;10.45;100.00;95193.72;4986887;28;20061;-75
2024/01/07 04:27:52;;;;;;;0.80;0.80;;;;;;;10.37;100.00;95175.66;4985425;28;20054;-73
2024/01/07 04:30:19;;;;;;;0.90;0.90;;;;;;;10.95;100.00;95265.09;4986976;28;20175;-75
2024/01/07 04:32:46;;;;;;;0.80;0.80;;;;;;;10.74;100.00;95216.31;4987067;28;20081;-73
2024/01/07 04:35:13;;;;;;;0.90;0.90;;;;;;;11.01;100.00;95252.34;4986507;28;20080;-74
2024/01/07 04:37:40;;;;;;;0.88;0.88;;;;;;;10.98;100.00;95244.88;4986988;28;20101;-76
2024/01/07 04:40:07;;;;;;;0.90;0.90;;;;;;;10.38;100.00;95121.88;4986976;28;20066;-77
2024/01/07 04:42:34;;;;;;;0.80;0.80;;;;;;;11.05;100.00;95226.16;4984997;28;20050;-76
2024/01/07 04:45:01;;;;;;;0.90;0.90;;;;;;;10.98;100.00;95192.25;4986527;28;20061;-76
2024/01/07 04:47:30;;;;;;;0.90;0.90;;;;;;;11.04;100.00;95187.78;4986278;28;20081;-75
2024/01/07 04:49:57;;;;;;;0.70;0.70;;;;;;;11.09;100.00;95193.66;4985187;28;20046;-74
2024/01/07 04:52:25;;;;;;;0.80;0.80;;;;;;;11.11;100.00;95190.47;4986802;28;20085;-76
2024/01/07 04:54:53;;;;;;;0.90;0.90;;;;;;;11.07;100.00;95186.94;4986812;28;20054;-75
2024/01/07 04:57:21;;;;;;;0.80;0.80;;;;;;;11.09;100.00;95176.25;4986098;28;20069;-75
2024/01/07 04:59:49;;;;;;;0.90;0.90;;;;;;;11.09;100.00;95181.78;4984892;28;20158;-75
2024/01/07 05:02:16;;;;;;;0.90;0.90;;;;;;;11.01;100.00;95191.41;4985670;28;20050;-74
2024/01/07 05:04:43;;;;;;;0.80;0.80;;;;;;;10.94;100.00;95191.53;4986476;28;20062;-74
2024/01/07 05:07:10;;;;;;;0.70;0.70;;;;;;;10.54;100.00;95130.34;4986361;28;20054;-72
2024/01/07 05:09:37;;;;;;;0.90;0.90;;;;;;;11.05;100.00;95208.78;4986747;28;20593;-77
2024/01/07 05:12:04;;;;;;;0.90;0.90;;;;;;;11.02;100.00;95209.59;4986078;28;20050;-76
2024/01/07 05:14:31;;;;;;;0.90;0.90;;;;;;;11.00;100.00;95200.91;4984498;28;20058;-75
2024/01/07 05:16:58;;;;;;;0.80;0.80;;;;;;;11.00;100.00;95204.47;4985584;28;20513;-75
2024/01/07 05:19:24;;;;;;;0.80;0.80;;;;;;;11.06;100.00;95215.88;4986013;28;20529;-77
2024/01/07 05:21:51;;;;;;;0.80;0.80;;;;;;;10.91;100.00;95203.44;4985657;28;20248;-76
2024/01/07 05:24:18;;;;;;;0.80;0.80;;;;;;;11.01;100.00;95208.03;4985386;28;20729;-76
2024/01/07 05:26:45;;;;;;;0.80;0.80;;;;;;;10.84;100.00;95178.59;4984301;28;20108;-75
2024/01/07 05:29:12;;;;;;;0.85;0.85;;;;;;;10.48;100.00;95126.47;4984479;28;20102;-76
2024/01/07 05:31:42;;;;;;;0.90;0.90;;;;;;;10.70;100.00;95177.59;4984487;28;20453;-75
2024/01/07 05:34:09;;;;;;;0.80;0.80;;;;;;;11.05;100.00;95225.41;4972196;28;20062;-76
2024/01/07 05:36:36;;;;;;;0.82;0.82;;;;;;;10.91;100.00;95204.19;4986034;28;20451;-76
2024/01/07 05:39:04;;;;;;;0.90;0.90;;;;;;;10.29;100.00;95118.81;4985831;28;20046;-76
2024/01/07 05:41:30;;;;;;;0.85;0.85;;;;;;;10.97;100.00;95207.31;4984447;28;20050;-75
2024/01/07 05:43:57;;;;;;;0.75;0.75;;;;;;;10.92;100.00;95202.22;4985788;28;20065;-76
2024/01/07 05:46:24;;;;;;;0.90;0.90;;;;;;;10.82;100.00;95172.69;4983682;28;20052;-76
2024/01/07 05:48:51;;;;;;;0.80;0.80;;;;;;;10.79;100.00;95185.38;4985470;28;20054;-74
2024/01/07 05:51:18;;;;;;;0.80;0.80;;;;;;;10.51;100.00;95136.72;4985153;28;20082;-73
2024/01/07 05:53:45;;;;;;;0.80;0.80;;;;;;;10.44;100.00;95130.50;4984095;28;20092;-76
2024/01/07 05:56:12;;;;;;;0.80;0.80;;;;;;;10.60;100.00;95184.06;4995270;28;20453;-76
2024/01/07 05:58:39;;;;;;;0.80;0.80;;;;;;;10.39;100.00;95166.94;5004790;28;20052;-75
2024/01/07 06:01:08;;;;;;;0.80;0.80;;;;;;;10.34;100.00;95162.66;5003872;28;20501;-74
2024/01/07 06:03:35;;;;;;;0.90;0.90;;;;;;;9.98;100.00;95111.69;5003922;28;20049;-75
2024/01/07 06:06:03;;;;;;;0.80;0.80;;;;;;;9.86;100.00;95148.19;5003887;28;20057;-76
2024/01/07 06:08:30;;;;;;;0.80;0.80;;;;;;;10.35;100.00;95194.63;5002293;28;20107;-74
2024/01/07 06:10:57;;;;;;;0.80;0.80;;;;;;;10.33;100.00;95187.97;5003530;28;20520;-73
2024/01/07 06:13:24;;;;;;;0.80;0.80;;;;;;;10.34;100.00;95153.53;5003594;28;20424;-74
2024/01/07 06:15:52;;;;;;;0.70;0.70;;;;;;;9.99;100.00;95093.13;5003644;28;20045;-74
2024/01/07 06:18:19;;;;;;;0.70;0.70;;;;;;;9.69;100.00;95060.69;5004434;28;20543;-74
2024/01/07 06:20:46;;;;;;;0.80;0.80;;;;;;;10.31;100.00;95165.44;5004520;28;20077;-73
2024/01/07 06:23:14;;;;;;;0.77;0.77;;;;;;;10.42;100.00;95189.03;5002907;28;20064;-71
2024/01/07 06:25:41;;;;;;;0.70;0.70;;;;;;;10.31;100.00;95193.91;5004262;28;20042;-73
2024/01/07 06:28:10;;;;;;;0.70;0.70;;;;;;;10.00;100.00;95128.66;5004333;28;20086;-71
2024/01/07 06:30:37;;;;;;;0.80;0.80;;;;;;;10.43;99.93;95192.59;5004192;28;20053;-72
2024/01/07 06:33:05;;;;;;;0.80;0.80;;;;;;;10.45;99.14;95198.47;5002999;28;20509;-72
2024/01/07 06:35:32;;;;;;;0.80;0.80;;;;;;;10.37;99.51;95186.72;5002676;28;20057;-72
2024/01/07 06:37:59;;;;;;;0.80;0.80;;;;;;;10.42;99.94;95200.09;5003967;28;20133;-71
2024/01/07 06:40:26;;;;;;;0.80;0.80;;;;;;;10.14;100.00;95178.31;5004267;28;20050;-74
2024/01/07 06:42:52;;;;;;;0.85;0.85;;;;;;;10.41;100.00;95215.16;5003912;28;20074;-71
2024/01/07 06:45:19;;;;;;;0.73;0.73;;;;;;;10.35;100.00;95211.25;5004670;28;20486;-73
2024/01/07 06:47:46;;;;;;;0.80;0.80;;;;;;;10.46;100.00;95222.22;5002878;28;20042;-70
2024/01/07 06:50:13;;;;;;;0.77;0.77;;;;;;;9.72;100.00;95120.66;5004007;28;20049;-71
2024/01/07 06:52:40;;;;;;;0.80;0.80;;;;;;;10.29;100.00;95223.97;5004260;28;20049;-72
2024/01/07 06:55:07;;;;;;;0.80;0.80;;;;;;;10.24;100.00;95177.38;5003607;28;20133;-71
2024/01/07 06:57:34;;;;;;;0.80;0.80;;;;;;;10.52;100.00;95221.34;4985841;28;20054;-70
2024/01/07 07:00:02;;;;;;;0.90;0.90;;;;;;;10.53;100.00;95233.97;4989221;28;20102;-70
2024/01/07 07:02:29;;;;;;;0.70;0.70;;;;;;;10.50;100.00;95234.00;4988034;28;20054;-71
2024/01/07 07:04:56;;;;;;;0.82;0.82;;;;;;;10.26;100.00;95202.66;4988498;28;20057;-71
2024/01/07 07:07:23;;;;;;;0.80;0.80;;;;;;;10.59;100.00;95242.63;4988260;28;20058;-70
2024/01/07 07:09:50;;;;;;;0.80;0.80;;;;;;;10.37;100.00;95238.50;4987994;28;20510;-70
2024/01/07 07:12:18;;;;;;;0.80;0.80;;;;;;;10.46;100.00;95253.41;4988393;28;20487;-70
2024/01/07 07:14:44;;;;;;;0.80;0.80;;;;;;;10.54;100.00;95257.69;4988179;28;20485;-69
2024/01/07 07:17:11;;;;;;;0.80;0.80;;;;;;;10.54;100.00;95263.22;4987863;28;20141;-69
2024/01/07 07:19:38;;;;;;;0.80;0.80;;;;;;;10.55;100.00;95264.81;4988603;28;20050;-71
2024/01/07 07:22:09;;;;;;;0.80;0.80;;;;;;;10.53;100.00;95278.25;4987837;28;20081;-71
2024/01/07 07:24:41;;;;;;;0.80;0.80;;;;;;;9.85;100.00;95198.34;4987931;28;20702;-69
2024/01/07 07:27:08;;;;;;;0.80;0.80;;;;;;;10.52;100.00;95304.38;4986544;28;20504;-68
2024/01/07 07:29:35;;;;;;;0.82;0.82;;;;;;;10.91;100.00;95330.84;4988694;28;20050;-69
2024/01/07 07:32:01;;;;;;;0.88;0.88;;;;;;;10.85;99.22;95311.13;4988333;28;20054;-67
2024/01/07 07:34:28;;;;;;;0.80;0.80;;;;;;;10.61;100.00;95309.41;4986498;28;20387;-68
2024/01/07 07:36:55;;;;;;;0.80;0.80;;;;;;;10.42;100.00;95316.34;4987490;28;20050;-68
2024/01/07 07:39:22;;;;;;;0.90;0.90;;;;;;;10.67;100.00;95310.53;4986145;28;20054;-68
2024/01/07 07:41:49;;;;;;;0.80;0.80;;;;;;;10.74;100.00;95288.31;4985947;28;20153;-69
2024/01/07 07:44:16;;;;;;;0.90;0.90;;;;;;;10.90;100.00;95301.56;4988164;28;20060;-69
2024/01/07 07:46:42;;;;;;;0.82;0.82;;;;;;;9.98;99.54;95142.09;4987399;28;20050;-69
2024/01/07 07:49:11;;;;;;;0.90;0.90;;;;;;;10.63;98.37;95238.59;4986439;28;20177;-69
2024/01/07 07:51:38;;;;;;;0.90;0.90;;;;;;;11.39;97.61;95298.13;4987209;28;20086;-68
2024/01/07 07:54:05;;;;;;;0.90;0.90;;;;;;;11.68;96.82;95291.75;4987517;28;20042;-69
2024/01/07 07:56:32;;;;;;;0.90;0.90;;;;;;;11.66;94.76;95251.81;4999303;28;20068;-68
2024/01/07 07:58:59;;;;;;;0.90;0.90;;;;;;;11.81;93.70;95217.06;5006990;28;20046;-70
2024/01/07 08:01:25;;;;;;;1.00;1.00;;;;;;;12.48;91.15;95283.25;5006712;28;20537;-69
2024/01/07 08:03:52;;;;;;;1.00;1.00;;;;;;;12.32;86.88;95252.63;5007071;28;20054;-70
2024/01/07 08:06:19;;;;;;;1.00;1.00;;;;;;;11.97;86.46;95231.84;5006848;28;20123;-70
2024/01/07 08:08:46;;;;;;;1.10;1.10;;;;;;;10.43;89.12;94983.03;5006470;28;20842;-69
2024/01/07 08:11:13;;;;;;;1.00;1.00;;;;;;;9.70;92.09;94973.81;5006824;28;20057;-69
2024/01/07 08:13:40;;;;;;;1.00;1.00;;;;;;;11.87;91.91;95259.78;5006783;28;20057;-68
2024/01/07 08:16:08;;;;;;;1.00;1.00;;;;;;;11.75;93.46;95266.69;5006031;28;20084;-68
2024/01/07 08:18:35;;;;;;;1.00;1.00;;;;;;;12.06;93.55;95272.94;5005416;28;20133;-68
2024/01/07 08:21:02;;;;;;;1.00;1.00;;;;;;;11.49;94.32;95277.78;5006224;28;20058;-68
2024/01/07 08:23:29;;;;;;;0.90;0.90;;;;;;;11.53;94.05;95257.13;5006345;28;20499;-68
2024/01/07 08:25:56;;;;;;;0.80;0.80;;;;;;;11.32;93.34;95251.09;5006519;28;20411;-69
2024/01/07 08:28:23;;;;;;;1.00;1.00;;;;;;;11.58;93.65;95270.50;5006338;28;20079;-68
2024/01/07 08:30:51;;;;;;;1.00;1.00;;;;;;;11.74;93.95;95278.22;5006721;28;20093;-69
2024/01/07 08:33:18;;;;;;;0.90;0.90;;;;;;;11.52;95.64;95282.50;5005287;28;20050;-69
2024/01/07 08:35:45;;;;;;;0.98;0.98;;;;;;;11.72;93.96;95280.63;5004982;28;20058;-70
2024/01/07 08:38:12;;;;;;;0.90;0.90;;;;;;;11.65;92.56;95258.56;5005842;28;20623;-69
2024/01/07 08:40:39;;;;;;;1.00;1.00;;;;;;;11.14;91.89;95159.94;4988096;28;20487;-69
2024/01/07 08:43:06;;;;;;;1.00;1.00;;;;;;;11.60;93.34;95281.19;4986424;28;20058;-69
2024/01/07 08:45:33;;;;;;;0.90;0.90;;;;;;;11.22;93.26;95221.56;4986309;28;20149;-68
2024/01/07 08:48:00;;;;;;;0.90;0.90;;;;;;;11.21;95.59;95222.75;4986552;28;20691;-69
2024/01/07 08:50:27;;;;;;;1.00;1.00;;;;;;;11.80;92.49;95270.97;4986502;28;20054;-69
2024/01/07 08:52:53;;;;;;;0.93;0.93;;;;;;;11.71;91.43;95212.50;4986615;28;20102;-69
2024/01/07 08:55:20;;;;;;;0.98;0.98;;;;;;;11.85;88.92;95213.06;4986153;28;20062;-69
2024/01/07 08:57:48;;;;;;;1.10;1.10;;;;;;;11.74;85.43;95183.91;4986213;28;20425;-69
2024/01/07 09:00:16;;;;;;;0.90;0.90;;;;;;;12.28;85.52;95251.91;4986319;28;20445;-68
2024/01/07 09:02:43;;;;;;;1.00;1.00;;;;;;;11.95;85.07;95223.16;4986089;28;20139;-69
2024/01/07 09:05:11;;;;;;;1.00;1.00;;;;;;;12.06;89.66;95239.63;4986202;28;20061;-68
2024/01/07 09:07:39;;;;;;;1.00;1.00;;;;;;;11.71;90.19;95154.25;4985943;28;20050;-68
2024/01/07 09:10:10;;;;;;;1.00;1.00;;;;;;;12.49;90.10;95262.59;4986347;28;20050;-68
2024/01/07 09:12:38;;;;;;;1.00;1.00;;;;;;;12.57;90.28;95269.59;4985931;28;20153;-68
2024/01/07 09:15:08;;;;;;;1.00;1.00;;;;;;;12.12;90.45;95208.16;4986144;28;20080;-68
2024/01/07 09:17:37;;;;;;;1.00;1.00;;;;;;;12.51;90.15;95253.84;4985501;28;20138;-69
2024/01/07 09:20:08;;;;;;;1.08;1.08;;;;;;;12.26;90.32;95237.66;4985691;28;20089;-69
2024/01/07 09:22:35;;;;;;;1.10;1.10;;;;;;;12.04;89.75;95186.53;4985977;28;20054;-68
2024/01/07 09:25:06;;;;;;;1.10;1.10;;;;;;;12.61;88.96;95244.53;4985699;28;20066;-68
2024/01/07 09:27:33;;;;;;;1.10;1.10;;;;;;;12.56;87.89;95245.81;4984376;28;20066;-68
2024/01/07 09:30:01;;;;;;;1.08;1.08;;;;;;;12.71;88.33;95263.75;4986318;28;20057;-68
2024/01/07 09:32:28;;;;;;;1.10;1.10;;;;;;;12.87;88.22;95249.94;4985361;28;20050;-68
2024/01/07 09:34:55;;;;;;;1.10;1.10;;;;;;;12.88;85.59;95234.81;4986146;28;20096;-69
2024/01/07 09:37:22;;;;;;;1.10;1.10;;;;;;;12.82;84.64;95205.97;4985616;28;20054;-68
2024/01/07 09:39:49;;;;;;;1.08;1.08;;;;;;;12.96;85.48;95241.78;4986075;28;20050;-69
2024/01/07 09:42:18;;;;;;;1.17;1.17;;;;;;;12.83;87.26;95238.13;4985296;28;20505;-69
2024/01/07 09:44:45;;;;;;;1.10;1.10;;;;;;;12.67;86.73;95178.94;4984507;28;20501;-69
2024/01/07 09:47:14;;;;;;;1.10;1.10;;;;;;;12.73;85.04;95149.44;4985609;28;20062;-69
2024/01/07 09:49:42;;;;;;;1.15;1.15;;;;;;;12.90;85.06;95231.63;4985991;28;20113;-69
2024/01/07 09:52:11;;;;;;;1.00;1.00;;;;;;;12.56;87.45;95206.16;4983942;28;20065;-68
2024/01/07 09:54:39;;;;;;;1.02;1.02;;;;;;;12.48;88.68;95208.28;4984909;28;20124;-69
2024/01/07 09:57:07;;;;;;;0.93;0.93;;;;;;;12.56;88.86;95206.94;4984954;28;20069;-68
2024/01/07 09:59:37;;;;;;;0.93;0.93;;;;;;;12.38;88.44;95164.84;4985842;28;20065;-69
2024/01/07 10:02:04;;;;;;;1.20;1.20;;;;;;;12.46;87.98;95196.81;4983471;28;20057;-68
2024/01/07 10:04:31;;;;;;;1.10;1.10;;;;;;;12.63;87.68;95211.56;4985491;28;20061;-68
2024/01/07 10:06:58;;;;;;;0.90;0.90;;;;;;;12.67;86.75;95174.16;4984989;28;20065;-69
2024/01/07 10:09:32;;;;;;;1.10;1.10;;;;;;;13.35;84.03;95204.84;4984951;28;20060;-67
2024/01/07 10:11:59;;;;;;;1.10;1.10;;;;;;;13.33;84.44;95205.28;4983576;28;20054;-68
2024/01/07 10:14:26;;;;;;;1.15;1.15;;;;;;;13.60;84.34;95203.03;4985194;28;20108;-69
2024/01/07 10:16:55;;;;;;;1.30;1.30;;;;;;;13.66;81.65;95162.34;4983164;28;20152;-69
2024/01/07 10:19:23;;;;;;;1.20;1.20;;;;;;;14.24;80.77;95206.97;4985392;28;20050;-69
2024/01/07 10:22:04;;;;;;;1.30;1.30;;;;;;;14.60;78.41;95199.22;4984461;28;20587;-69
2024/01/07 10:24:40;;;;;;;1.13;1.13;;;;;;;14.61;74.13;95189.63;4984686;28;20101;-68
2024/01/07 10:27:08;;;;;;;1.30;1.30;;;;;;;13.43;74.51;95020.69;4984506;28;20042;-69
2024/01/07 10:29:35;;;;;;;1.30;1.30;;;;;;;14.03;72.15;95098.97;4984971;28;20054;-70
2024/01/07 10:32:04;;;;;;;1.10;1.10;;;;;;;14.54;71.42;95148.06;4983996;28;20082;-69
2024/01/07 10:34:33;;;;;;;1.25;1.25;;;;;;;14.92;71.30;95179.59;4985288;28;20054;-70
2024/01/07 10:37:02;;;;;;;1.40;1.40;;;;;;;14.94;69.91;95177.91;4983207;28;20132;-69
2024/01/07 10:39:30;;;;;;;1.30;1.30;;;;;;;15.02;69.25;95168.09;4985621;28;20646;-69
2024/01/07 10:41:57;;;;;;;1.40;1.40;;;;;;;15.15;69.56;95168.13;4983330;28;20047;-69
2024/01/07 10:44:30;;;;;;;1.30;1.30;;;;;;;14.47;70.58;95057.13;4984953;28;20054;-70
2024/01/07 10:46:58;;;;;;;1.40;1.40;;;;;;;14.99;70.38;95162.63;4984182;28;20054;-69
2024/01/07 10:49:28;;;;;;;1.30;1.30;;;;;;;14.80;70.28;95144.09;4983280;28;20493;-69
2024/01/07 10:52:15;;;;;;;1.30;1.30;;;;;;;13.48;70.78;94922.81;4983221;28;20116;-70
2024/01/07 10:54:44;;;;;;;1.17;1.17;;;;;;;14.61;68.82;95078.97;4985014;28;20062;-70
2024/01/07 10:57:21;;;;;;;1.40;1.40;;;;;;;15.04;69.45;95157.31;4984306;28;20140;-70
2024/01/07 10:59:50;;;;;;;1.30;1.30;;;;;;;14.54;68.01;95103.50;4984800;28;20476;-70
2024/01/07 11:02:21;;;;;;;1.20;1.20;;;;;;;14.76;69.37;95141.41;4984209;28;20089;-70
2024/01/07 11:05:07;;;;;;;1.38;1.38;;;;;;;14.42;70.99;95118.16;4983224;28;20133;-70
2024/01/07 11:07:50;;;;;;;1.35;1.35;;;;;;;14.51;70.84;95144.13;4982665;28;20046;-70
2024/01/07 11:10:22;;;;;;;1.38;1.38;;;;;;;14.26;71.01;95121.00;4984561;28;20069;-70
2024/01/07 11:13:00;;;;;;;1.30;1.30;;;;;;;14.35;72.44;95138.63;4983400;28;20064;-70
2024/01/07 11:15:52;;;;;;;1.30;1.30;;;;;;;14.48;70.96;95128.31;4984051;28;20062;-70
2024/01/07 11:18:23;;;;;;;1.40;1.40;;;;;;;14.22;69.94;95070.19;4984512;28;20050;-70
2024/01/07 11:20:50;;;;;;;1.25;1.25;;;;;;;14.50;68.62;95063.78;4984361;28;20058;-70
2024/01/07 11:23:37;;;;;;;1.40;1.40;;;;;;;15.37;66.32;95127.16;4984364;28;20062;-71
2024/01/07 11:26:04;;;;;;;1.30;1.30;;;;;;;15.54;65.48;95122.28;4984065;28;20045;-70
2024/01/07 11:28:47;;;;;;;1.40;1.40;;;;;;;15.66;66.36;95116.69;4984410;28;20050;-70
2024/01/07 11:31:16;;;;;;;1.50;1.50;;;;;;;15.58;67.14;95112.56;4982807;28;20062;-69